createdAt,value
2018-08-30T00:00:05.352Z,1003.34
2018-08-30T00:00:25.212Z,1003.33
2018-08-30T00:00:45.564Z,1003.38
2018-08-30T00:01:06.286Z,1003.28
2018-08-30T00:01:26.141Z,1003.36
2018-08-30T00:01:46.712Z,1003.41
2018-08-30T00:02:06.912Z,1003.32
2018-08-30T00:02:26.761Z,1003.37
2018-08-30T00:02:47.122Z,1003.35
2018-08-30T00:03:07.769Z,1003.33
2018-08-30T00:03:27.623Z,1003.38
2018-08-30T00:03:48.080Z,1003.40
2018-08-30T00:04:08.440Z,1003.42
2018-08-30T00:04:28.794Z,1003.40
2018-08-30T00:04:49.513Z,1003.39
2018-08-30T00:05:09.614Z,1003.36
2018-08-30T00:05:29.471Z,1003.44
2018-08-30T00:05:50.178Z,1003.40
2018-08-30T00:06:10.044Z,1003.42
2018-08-30T00:06:30.406Z,1003.38
2018-08-30T00:06:51.043Z,1003.37
2018-08-30T00:07:10.897Z,1003.40
2018-08-30T00:07:31.240Z,1003.42
2018-08-30T00:07:51.938Z,1003.43
2018-08-30T00:08:11.787Z,1003.40
2018-08-30T00:08:32.131Z,1003.40
2018-08-30T00:08:52.783Z,1003.40
2018-08-30T00:09:12.648Z,1003.39
2018-08-30T00:09:33.138Z,1003.45
2018-08-30T00:09:53.924Z,1003.38
2018-08-30T00:10:14.009Z,1003.44
2018-08-30T00:10:34.242Z,1003.45
2018-08-30T00:10:54.283Z,1003.46
2018-08-30T00:11:14.128Z,1003.40
2018-08-30T00:11:34.824Z,1003.49
2018-08-30T00:11:54.685Z,1003.45
2018-08-30T00:12:15.043Z,1003.36
2018-08-30T00:12:35.793Z,1003.35
2018-08-30T00:12:55.645Z,1003.43
2018-08-30T00:13:15.986Z,1003.46
2018-08-30T00:13:36.639Z,1003.41
2018-08-30T00:13:56.506Z,1003.37
2018-08-30T00:14:16.861Z,1003.52
2018-08-30T00:14:37.507Z,1003.40
2018-08-30T00:14:57.383Z,1003.45
2018-08-30T00:15:17.721Z,1003.42
2018-08-30T00:15:38.364Z,1003.38
2018-08-30T00:15:58.477Z,1003.37
2018-08-30T00:16:18.624Z,1003.39
2018-08-30T00:16:38.737Z,1003.45
2018-08-30T00:16:58.860Z,1003.46
2018-08-30T00:17:19.052Z,1003.40
2018-08-30T00:17:39.411Z,1003.42
2018-08-30T00:17:59.350Z,1003.48
2018-08-30T00:18:20.058Z,1003.45
2018-08-30T00:18:39.973Z,1003.47
2018-08-30T00:19:00.310Z,1003.46
2018-08-30T00:19:21.010Z,1003.44
2018-08-30T00:19:40.873Z,1003.41
2018-08-30T00:20:01.227Z,1003.45
2018-08-30T00:20:21.919Z,1003.45
2018-08-30T00:20:41.775Z,1003.47
2018-08-30T00:21:02.157Z,1003.44
2018-08-30T00:21:22.789Z,1003.43
2018-08-30T00:21:42.654Z,1003.47
2018-08-30T00:22:03.356Z,1003.46
2018-08-30T00:22:23.502Z,1003.47
2018-08-30T00:22:43.457Z,1003.46
2018-08-30T00:23:04.143Z,1003.47
2018-08-30T00:23:24.303Z,1003.42
2018-08-30T00:23:44.187Z,1003.39
2018-08-30T00:24:04.871Z,1003.38
2018-08-30T00:24:24.736Z,1003.39
2018-08-30T00:24:45.220Z,1003.46
2018-08-30T00:25:05.908Z,1003.46
2018-08-30T00:25:25.768Z,1003.35
2018-08-30T00:25:46.137Z,1003.52
2018-08-30T00:26:06.867Z,1003.51
2018-08-30T00:26:26.769Z,1003.50
2018-08-30T00:26:47.271Z,1003.56
2018-08-30T00:27:07.933Z,1003.43
2018-08-30T00:27:27.805Z,1003.50
2018-08-30T00:27:48.301Z,1003.47
2018-08-30T00:28:09.072Z,1003.52
2018-08-30T00:28:29.078Z,1003.56
2018-08-30T00:28:49.277Z,1003.51
2018-08-30T00:29:09.133Z,1003.50
2018-08-30T00:29:29.503Z,1003.55
2018-08-30T00:29:50.266Z,1003.56
2018-08-30T00:30:10.117Z,1003.53
2018-08-30T00:30:30.479Z,1003.52
2018-08-30T00:30:51.145Z,1003.51
2018-08-30T00:31:11.011Z,1003.59
2018-08-30T00:31:31.359Z,1003.49
2018-08-30T00:31:52.096Z,1003.57
2018-08-30T00:32:12.061Z,1003.55
2018-08-30T00:32:32.587Z,1003.56
2018-08-30T00:32:52.726Z,1003.53
2018-08-30T00:33:12.573Z,1003.48
2018-08-30T00:33:33.028Z,1003.68
2018-08-30T00:33:53.653Z,1003.60
2018-08-30T00:34:13.517Z,1003.52
2018-08-30T00:34:34.229Z,1003.53
2018-08-30T00:34:54.440Z,1003.64
2018-08-30T00:35:14.603Z,1003.64
2018-08-30T00:35:34.796Z,1003.53
2018-08-30T00:35:54.684Z,1003.57
2018-08-30T00:36:15.041Z,1003.62
2018-08-30T00:36:35.795Z,1003.55
2018-08-30T00:36:55.676Z,1003.62
2018-08-30T00:37:16.033Z,1003.57
2018-08-30T00:37:36.735Z,1003.60
2018-08-30T00:37:56.632Z,1003.48
2018-08-30T00:38:17.106Z,1003.55
2018-08-30T00:38:37.745Z,1003.52
2018-08-30T00:38:57.642Z,1003.53
2018-08-30T00:39:18.073Z,1003.58
2018-08-30T00:39:38.715Z,1003.58
2018-08-30T00:39:58.634Z,1003.53
2018-08-30T00:40:19.360Z,1003.51
2018-08-30T00:40:39.297Z,1003.58
2018-08-30T00:40:59.755Z,1003.52
2018-08-30T00:41:20.529Z,1003.63
2018-08-30T00:41:40.326Z,1003.54
2018-08-30T00:42:00.681Z,1003.60
2018-08-30T00:42:21.334Z,1003.59
2018-08-30T00:42:41.202Z,1003.63
2018-08-30T00:43:01.610Z,1003.67
2018-08-30T00:43:22.244Z,1003.65
2018-08-30T00:43:42.097Z,1003.65
2018-08-30T00:44:02.695Z,1003.64
2018-08-30T00:44:22.834Z,1003.64
2018-08-30T00:44:42.697Z,1003.69
2018-08-30T00:45:03.258Z,1003.65
2018-08-30T00:45:23.408Z,1003.71
2018-08-30T00:45:43.265Z,1003.65
2018-08-30T00:46:03.964Z,1003.63
2018-08-30T00:46:24.219Z,1003.67
2018-08-30T00:46:44.188Z,1003.63
2018-08-30T00:47:04.911Z,1003.66
2018-08-30T00:47:24.881Z,1003.72
2018-08-30T00:47:45.243Z,1003.67
2018-08-30T00:48:05.963Z,1003.71
2018-08-30T00:48:25.810Z,1003.77
2018-08-30T00:48:46.401Z,1003.75
2018-08-30T00:49:06.652Z,1003.70
2018-08-30T00:49:26.504Z,1003.74
2018-08-30T00:49:46.866Z,1003.76
2018-08-30T00:50:07.539Z,1003.77
2018-08-30T00:50:27.399Z,1003.81
2018-08-30T00:50:47.764Z,1003.81
2018-08-30T00:51:08.185Z,1003.83
2018-08-30T00:51:28.543Z,1003.78
2018-08-30T00:51:49.259Z,1003.75
2018-08-30T00:52:09.332Z,1003.87
2018-08-30T00:52:29.174Z,1003.81
2018-08-30T00:52:49.887Z,1003.81
2018-08-30T00:53:09.761Z,1003.88
2018-08-30T00:53:30.120Z,1003.90
2018-08-30T00:53:50.812Z,1003.90
2018-08-30T00:54:10.667Z,1003.84
2018-08-30T00:54:31.012Z,1003.90
2018-08-30T00:54:51.685Z,1003.94
2018-08-30T00:55:11.550Z,1003.79
2018-08-30T00:55:31.913Z,1003.91
2018-08-30T00:55:52.585Z,1003.96
2018-08-30T00:56:12.454Z,1003.99
2018-08-30T00:56:32.802Z,1004.04
2018-08-30T00:56:53.443Z,1003.93
2018-08-30T00:57:13.301Z,1003.89
2018-08-30T00:57:33.987Z,1004.03
2018-08-30T00:57:54.143Z,1003.98
2018-08-30T00:58:13.992Z,1003.94
2018-08-30T00:58:34.702Z,1004.03
2018-08-30T00:58:54.595Z,1003.98
2018-08-30T00:59:14.953Z,1004.02
2018-08-30T00:59:35.671Z,1004.02
2018-08-30T00:59:55.532Z,1004.02
2018-08-30T01:00:16.136Z,1003.97
2018-08-30T01:00:36.317Z,1004.02
2018-08-30T01:00:56.163Z,1004.09
2018-08-30T01:01:16.533Z,1004.05
2018-08-30T01:01:37.212Z,1004.11
2018-08-30T01:01:57.066Z,1004.13
2018-08-30T01:02:17.486Z,1004.06
2018-08-30T01:02:38.097Z,1004.12
2018-08-30T01:02:57.946Z,1004.01
2018-08-30T01:03:18.541Z,1004.06
2018-08-30T01:03:38.656Z,1004.11
2018-08-30T01:03:58.513Z,1004.11
2018-08-30T01:04:19.331Z,1004.16
2018-08-30T01:04:39.286Z,1004.11
2018-08-30T01:04:59.631Z,1004.11
2018-08-30T01:05:20.374Z,1004.10
2018-08-30T01:05:40.306Z,1004.16
2018-08-30T01:06:00.649Z,1004.09
2018-08-30T01:06:21.384Z,1004.27
2018-08-30T01:06:41.260Z,1004.20
2018-08-30T01:07:01.713Z,1004.18
2018-08-30T01:07:22.376Z,1004.10
2018-08-30T01:07:42.237Z,1004.20
2018-08-30T01:08:02.907Z,1004.18
2018-08-30T01:08:23.053Z,1004.22
2018-08-30T01:08:42.903Z,1004.25
2018-08-30T01:09:03.631Z,1004.25
2018-08-30T01:09:23.773Z,1004.26
2018-08-30T01:09:43.738Z,1004.25
2018-08-30T01:10:04.448Z,1004.27
2018-08-30T01:10:24.561Z,1004.32
2018-08-30T01:10:44.396Z,1004.33
2018-08-30T01:11:05.101Z,1004.32
2018-08-30T01:11:25.056Z,1004.34
2018-08-30T01:11:45.421Z,1004.38
2018-08-30T01:12:06.142Z,1004.38
2018-08-30T01:12:46.013Z,1004.32
2018-08-30T01:13:06.741Z,1004.31
2018-08-30T01:13:26.637Z,1004.37
2018-08-30T01:13:46.995Z,1004.34
2018-08-30T01:14:07.664Z,1004.37
2018-08-30T01:14:27.528Z,1004.36
2018-08-30T01:14:47.875Z,1004.32
2018-08-30T01:15:08.521Z,1004.35
2018-08-30T01:15:28.378Z,1004.34
2018-08-30T01:15:49.115Z,1004.38
2018-08-30T01:16:09.261Z,1004.46
2018-08-30T01:16:29.123Z,1004.48
2018-08-30T01:16:49.842Z,1004.43
2018-08-30T01:17:09.697Z,1004.34
2018-08-30T01:17:30.038Z,1004.47
2018-08-30T01:17:50.752Z,1004.33
2018-08-30T01:18:10.695Z,1004.31
2018-08-30T01:18:31.044Z,1004.37
2018-08-30T01:18:51.766Z,1004.40
2018-08-30T01:19:11.699Z,1004.44
2018-08-30T01:19:32.060Z,1004.42
2018-08-30T01:19:52.706Z,1004.43
2018-08-30T01:20:12.566Z,1004.43
2018-08-30T01:20:33.013Z,1004.38
2018-08-30T01:20:53.667Z,1004.51
2018-08-30T01:21:13.528Z,1004.42
2018-08-30T01:21:34.226Z,1004.42
2018-08-30T01:21:54.250Z,1004.45
2018-08-30T01:22:14.100Z,1004.44
2018-08-30T01:22:34.840Z,1004.55
2018-08-30T01:22:54.685Z,1004.42
2018-08-30T01:23:15.073Z,1004.49
2018-08-30T01:23:35.772Z,1004.52
2018-08-30T01:23:55.628Z,1004.53
2018-08-30T01:24:15.979Z,1004.42
2018-08-30T01:24:36.642Z,1004.53
2018-08-30T01:24:56.501Z,1004.49
2018-08-30T01:25:16.859Z,1004.46
2018-08-30T01:25:37.503Z,1004.53
2018-08-30T01:25:57.367Z,1004.60
2018-08-30T01:26:17.754Z,1004.55
2018-08-30T01:26:38.403Z,1004.56
2018-08-30T01:26:58.255Z,1004.53
2018-08-30T01:27:18.964Z,1004.64
2018-08-30T01:27:39.067Z,1004.49
2018-08-30T01:27:59.081Z,1004.59
2018-08-30T01:28:19.293Z,1004.68
2018-08-30T01:28:39.510Z,1004.61
2018-08-30T01:28:59.493Z,1004.60
2018-08-30T01:29:20.286Z,1004.60
2018-08-30T01:29:40.147Z,1004.62
2018-08-30T01:30:00.498Z,1004.64
2018-08-30T01:30:21.201Z,1004.58
2018-08-30T01:30:41.057Z,1004.57
2018-08-30T01:31:01.414Z,1004.62
2018-08-30T01:31:22.118Z,1004.54
2018-08-30T01:31:42.064Z,1004.64
2018-08-30T01:32:02.723Z,1004.69
2018-08-30T01:32:22.869Z,1004.69
2018-08-30T01:32:42.797Z,1004.70
2018-08-30T01:33:06.115Z,1004.66
2018-08-30T01:33:23.762Z,1004.63
2018-08-30T01:33:43.665Z,1004.78
2018-08-30T01:34:04.346Z,1004.76
2018-08-30T01:34:24.274Z,1004.75
2018-08-30T01:34:44.676Z,1004.75
2018-08-30T01:35:05.416Z,1004.81
2018-08-30T01:35:25.328Z,1004.78
2018-08-30T01:35:45.682Z,1004.76
2018-08-30T01:36:06.339Z,1004.73
2018-08-30T01:36:26.183Z,1004.78
2018-08-30T01:36:46.551Z,1004.77
2018-08-30T01:37:07.218Z,1004.81
2018-08-30T01:37:27.241Z,1004.83
2018-08-30T01:37:47.096Z,1004.88
2018-08-30T01:38:07.742Z,1004.76
2018-08-30T01:38:27.590Z,1004.84
2018-08-30T01:38:48.020Z,1004.85
2018-08-30T01:39:08.679Z,1004.86
2018-08-30T01:39:28.537Z,1004.87
2018-08-30T01:39:49.231Z,1004.85
2018-08-30T01:40:09.243Z,1004.78
2018-08-30T01:40:29.113Z,1004.80
2018-08-30T01:40:49.799Z,1004.80
2018-08-30T01:41:09.676Z,1004.89
2018-08-30T01:41:30.026Z,1004.85
2018-08-30T01:41:50.773Z,1004.86
2018-08-30T01:42:10.715Z,1004.85
2018-08-30T01:42:31.074Z,1004.81
2018-08-30T01:42:51.752Z,1004.81
2018-08-30T01:43:11.607Z,1004.81
2018-08-30T01:43:31.974Z,1004.93
2018-08-30T01:43:52.612Z,1004.85
2018-08-30T01:44:12.464Z,1004.88
2018-08-30T01:44:32.838Z,1004.79
2018-08-30T01:44:53.480Z,1004.81
2018-08-30T01:45:13.412Z,1004.87
2018-08-30T01:45:34.131Z,1004.79
2018-08-30T01:45:54.131Z,1004.88
2018-08-30T01:46:13.999Z,1004.88
2018-08-30T01:46:34.723Z,1004.86
2018-08-30T01:46:54.882Z,1004.86
2018-08-30T01:47:14.738Z,1004.88
2018-08-30T01:47:35.446Z,1004.93
2018-08-30T01:47:55.301Z,1004.89
2018-08-30T01:48:15.691Z,1004.79
2018-08-30T01:48:36.373Z,1004.87
2018-08-30T01:48:56.274Z,1004.79
2018-08-30T01:49:16.632Z,1004.86
2018-08-30T01:49:37.320Z,1004.78
2018-08-30T01:49:57.166Z,1004.87
2018-08-30T01:50:17.780Z,1004.94
2018-08-30T01:50:37.933Z,1004.86
2018-08-30T01:50:57.779Z,1004.87
2018-08-30T01:51:18.352Z,1004.87
2018-08-30T01:51:38.494Z,1004.93
2018-08-30T01:51:58.353Z,1004.89
2018-08-30T01:52:19.038Z,1004.89
2018-08-30T01:52:39.107Z,1004.96
2018-08-30T01:52:58.955Z,1004.94
2018-08-30T01:53:19.675Z,1004.85
2018-08-30T01:53:39.637Z,1004.86
2018-08-30T01:53:59.989Z,1004.86
2018-08-30T01:54:20.691Z,1004.78
2018-08-30T01:54:40.540Z,1004.90
2018-08-30T01:55:00.908Z,1004.81
2018-08-30T01:55:21.568Z,1004.84
2018-08-30T01:55:41.431Z,1004.83
2018-08-30T01:56:02.105Z,1004.87
2018-08-30T01:56:22.289Z,1004.87
2018-08-30T01:56:42.186Z,1004.81
2018-08-30T01:57:02.866Z,1004.87
2018-08-30T01:57:23.006Z,1004.89
2018-08-30T01:57:42.854Z,1004.80
2018-08-30T01:58:03.563Z,1004.94
2018-08-30T01:58:23.718Z,1004.87
2018-08-30T01:58:43.568Z,1004.85
2018-08-30T01:59:04.253Z,1004.93
2018-08-30T01:59:24.370Z,1004.87
2018-08-30T01:59:44.326Z,1004.90
2018-08-30T02:00:05.074Z,1004.89
2018-08-30T02:00:24.927Z,1004.88
2018-08-30T02:00:45.294Z,1005.03
2018-08-30T02:01:06.056Z,1004.85
2018-08-30T02:01:25.924Z,1004.90
2018-08-30T02:01:46.267Z,1004.84
2018-08-30T02:02:06.957Z,1004.97
2018-08-30T02:02:26.817Z,1004.87
2018-08-30T02:02:47.180Z,1004.93
2018-08-30T02:03:07.814Z,1004.95
2018-08-30T02:03:27.684Z,1004.96
2018-08-30T02:03:48.120Z,1004.92
2018-08-30T02:04:08.478Z,1004.97
2018-08-30T02:04:28.829Z,1004.98
2018-08-30T02:04:49.547Z,1004.91
2018-08-30T02:05:09.406Z,1005.00
2018-08-30T02:05:29.758Z,1004.90
2018-08-30T02:05:50.469Z,1004.99
2018-08-30T02:06:10.321Z,1004.91
2018-08-30T02:06:30.673Z,1004.93
2018-08-30T02:06:51.326Z,1004.89
2018-08-30T02:07:11.466Z,1004.98
2018-08-30T02:07:31.319Z,1005.08
2018-08-30T02:07:51.994Z,1005.06
2018-08-30T02:08:11.890Z,1005.00
2018-08-30T02:08:32.268Z,1005.07
2018-08-30T02:08:52.912Z,1004.97
2018-08-30T02:09:12.886Z,1005.09
2018-08-30T02:09:33.491Z,1005.02
2018-08-30T02:09:53.615Z,1004.96
2018-08-30T02:10:13.546Z,1005.04
2018-08-30T02:10:34.246Z,1005.04
2018-08-30T02:10:54.235Z,1004.99
2018-08-30T02:11:14.585Z,1005.04
2018-08-30T02:11:35.327Z,1005.09
2018-08-30T02:11:55.181Z,1005.05
2018-08-30T02:12:15.536Z,1005.14
2018-08-30T02:12:36.266Z,1005.09
2018-08-30T02:12:56.131Z,1005.09
2018-08-30T02:13:16.498Z,1004.98
2018-08-30T02:13:37.204Z,1005.12
2018-08-30T02:13:57.059Z,1005.07
2018-08-30T02:14:17.406Z,1005.01
2018-08-30T02:14:38.044Z,1005.14
2018-08-30T02:14:57.898Z,1005.06
2018-08-30T02:15:18.571Z,1005.16
2018-08-30T02:15:38.718Z,1005.16
2018-08-30T02:15:58.564Z,1005.10
2018-08-30T02:16:19.274Z,1005.07
2018-08-30T02:16:39.471Z,1005.22
2018-08-30T02:16:59.390Z,1005.21
2018-08-30T02:17:20.141Z,1005.14
2018-08-30T02:17:40.077Z,1005.05
2018-08-30T02:18:00.421Z,1005.10
2018-08-30T02:18:21.121Z,1005.16
2018-08-30T02:18:40.994Z,1005.16
2018-08-30T02:19:01.437Z,1005.16
2018-08-30T02:19:22.038Z,1005.17
2018-08-30T02:19:41.889Z,1005.19
2018-08-30T02:20:02.566Z,1005.16
2018-08-30T02:20:22.708Z,1005.26
2018-08-30T02:20:42.713Z,1005.17
2018-08-30T02:21:02.881Z,1005.14
2018-08-30T02:21:23.021Z,1005.25
2018-08-30T02:21:43.073Z,1005.19
2018-08-30T02:22:03.254Z,1005.20
2018-08-30T02:22:23.398Z,1005.16
2018-08-30T02:22:43.269Z,1005.19
2018-08-30T02:23:04.046Z,1005.24
2018-08-30T02:23:24.086Z,1005.25
2018-08-30T02:23:44.027Z,1005.17
2018-08-30T02:24:04.716Z,1005.16
2018-08-30T02:24:24.637Z,1005.19
2018-08-30T02:24:44.993Z,1005.21
2018-08-30T02:25:05.706Z,1005.25
2018-08-30T02:25:25.560Z,1005.24
2018-08-30T02:25:45.916Z,1005.20
2018-08-30T02:26:06.624Z,1005.24
2018-08-30T02:26:26.623Z,1005.12
2018-08-30T02:26:46.471Z,1005.15
2018-08-30T02:27:07.171Z,1005.17
2018-08-30T02:27:27.018Z,1005.25
2018-08-30T02:27:47.367Z,1005.18
2018-08-30T02:28:08.012Z,1005.18
2018-08-30T02:28:27.957Z,1005.12
2018-08-30T02:28:48.595Z,1005.17
2018-08-30T02:29:08.680Z,1005.25
2018-08-30T02:29:28.529Z,1005.26
2018-08-30T02:29:49.234Z,1005.10
2018-08-30T02:30:09.087Z,1005.14
2018-08-30T02:30:29.447Z,1005.15
2018-08-30T02:30:50.176Z,1005.25
2018-08-30T02:31:10.027Z,1005.22
2018-08-30T02:31:30.374Z,1005.21
2018-08-30T02:31:51.052Z,1005.31
2018-08-30T02:32:10.908Z,1005.23
2018-08-30T02:32:31.242Z,1005.21
2018-08-30T02:32:51.914Z,1005.21
2018-08-30T02:33:11.938Z,1005.29
2018-08-30T02:33:31.820Z,1005.31
2018-08-30T02:33:52.468Z,1005.33
2018-08-30T02:34:12.305Z,1005.29
2018-08-30T02:34:32.663Z,1005.27
2018-08-30T02:34:53.009Z,1005.30
2018-08-30T02:35:13.622Z,1005.25
2018-08-30T02:35:33.817Z,1005.22
2018-08-30T02:35:53.961Z,1005.32
2018-08-30T02:36:13.991Z,1005.36
2018-08-30T02:36:34.182Z,1005.35
2018-08-30T02:36:54.330Z,1005.35
2018-08-30T02:37:14.182Z,1005.26
2018-08-30T02:37:34.891Z,1005.18
2018-08-30T02:37:54.986Z,1005.31
2018-08-30T02:38:14.832Z,1005.33
2018-08-30T02:38:35.587Z,1005.25
2018-08-30T02:38:55.445Z,1005.32
2018-08-30T02:39:15.795Z,1005.41
2018-08-30T02:39:36.550Z,1005.40
2018-08-30T02:39:56.401Z,1005.30
2018-08-30T02:40:17.071Z,1005.34
2018-08-30T02:40:37.215Z,1005.36
2018-08-30T02:40:57.095Z,1005.30
2018-08-30T02:41:17.445Z,1005.39
2018-08-30T02:41:38.089Z,1005.35
2018-08-30T02:41:57.940Z,1005.37
2018-08-30T02:42:18.588Z,1005.39
2018-08-30T02:42:38.872Z,1005.38
2018-08-30T02:42:58.730Z,1005.40
2018-08-30T02:43:19.447Z,1005.33
2018-08-30T02:43:39.462Z,1005.42
2018-08-30T02:43:59.318Z,1005.42
2018-08-30T02:44:20.066Z,1005.37
2018-08-30T02:44:39.909Z,1005.45
2018-08-30T02:45:00.350Z,1005.43
2018-08-30T02:45:21.074Z,1005.36
2018-08-30T02:45:40.938Z,1005.38
2018-08-30T02:46:01.301Z,1005.47
2018-08-30T02:46:21.916Z,1005.39
2018-08-30T02:46:41.765Z,1005.38
2018-08-30T02:47:02.315Z,1005.44
2018-08-30T02:47:22.473Z,1005.42
2018-08-30T02:47:42.369Z,1005.39
2018-08-30T02:48:02.723Z,1005.39
2018-08-30T02:48:23.369Z,1005.33
2018-08-30T02:48:43.253Z,1005.39
2018-08-30T02:49:03.991Z,1005.43
2018-08-30T02:49:24.219Z,1005.33
2018-08-30T02:49:44.026Z,1005.44
2018-08-30T02:50:04.701Z,1005.45
2018-08-30T02:50:24.549Z,1005.36
2018-08-30T02:50:45.121Z,1005.44
2018-08-30T02:51:05.323Z,1005.48
2018-08-30T02:51:25.182Z,1005.42
2018-08-30T02:51:45.517Z,1005.46
2018-08-30T02:52:25.887Z,1005.43
2018-08-30T02:52:46.237Z,1005.43
2018-08-30T02:53:06.931Z,1005.46
2018-08-30T02:53:26.783Z,1005.43
2018-08-30T02:53:47.152Z,1005.44
2018-08-30T02:54:07.749Z,1005.45
2018-08-30T02:54:27.614Z,1005.45
2018-08-30T02:54:48.021Z,1005.39
2018-08-30T02:55:08.711Z,1005.44
2018-08-30T02:55:28.591Z,1005.45
2018-08-30T02:55:49.307Z,1005.47
2018-08-30T02:56:09.632Z,1005.47
2018-08-30T02:56:29.484Z,1005.45
2018-08-30T02:56:50.182Z,1005.47
2018-08-30T02:57:10.036Z,1005.53
2018-08-30T02:57:30.378Z,1005.45
2018-08-30T02:57:51.122Z,1005.47
2018-08-30T02:58:11.094Z,1005.49
2018-08-30T02:58:31.442Z,1005.51
2018-08-30T02:58:52.094Z,1005.49
2018-08-30T02:59:11.942Z,1005.47
2018-08-30T02:59:32.299Z,1005.59
2018-08-30T02:59:52.939Z,1005.49
2018-08-30T03:00:32.813Z,1005.45
2018-08-30T03:00:53.470Z,1005.50
2018-08-30T03:01:13.320Z,1005.49
2018-08-30T03:01:33.979Z,1005.44
2018-08-30T03:01:54.017Z,1005.47
2018-08-30T03:02:13.874Z,1005.49
2018-08-30T03:02:34.614Z,1005.47
2018-08-30T03:02:54.469Z,1005.49
2018-08-30T03:03:14.832Z,1005.45
2018-08-30T03:03:35.572Z,1005.45
2018-08-30T03:03:55.440Z,1005.46
2018-08-30T03:04:15.786Z,1005.50
2018-08-30T03:04:36.490Z,1005.53
2018-08-30T03:04:56.346Z,1005.49
2018-08-30T03:05:16.762Z,1005.54
2018-08-30T03:05:37.454Z,1005.49
2018-08-30T03:05:57.319Z,1005.48
2018-08-30T03:06:17.679Z,1005.52
2018-08-30T03:06:38.329Z,1005.49
2018-08-30T03:06:58.305Z,1005.56
2018-08-30T03:07:19.020Z,1005.45
2018-08-30T03:07:39.249Z,1005.48
2018-08-30T03:07:59.108Z,1005.54
2018-08-30T03:08:19.810Z,1005.54
2018-08-30T03:08:39.815Z,1005.54
2018-08-30T03:08:59.926Z,1005.54
2018-08-30T03:09:20.116Z,1005.50
2018-08-30T03:09:39.967Z,1005.46
2018-08-30T03:10:00.333Z,1005.55
2018-08-30T03:10:21.000Z,1005.55
2018-08-30T03:10:40.866Z,1005.54
2018-08-30T03:11:01.313Z,1005.55
2018-08-30T03:11:21.935Z,1005.57
2018-08-30T03:11:41.794Z,1005.58
2018-08-30T03:12:02.365Z,1005.56
2018-08-30T03:12:42.239Z,1005.58
2018-08-30T03:13:02.602Z,1005.55
2018-08-30T03:13:23.265Z,1005.54
2018-08-30T03:13:43.205Z,1005.57
2018-08-30T03:14:03.944Z,1005.65
2018-08-30T03:14:24.074Z,1005.59
2018-08-30T03:14:43.949Z,1005.59
2018-08-30T03:15:04.699Z,1005.57
2018-08-30T03:15:24.876Z,1005.58
2018-08-30T03:15:44.739Z,1005.50
2018-08-30T03:16:05.457Z,1005.60
2018-08-30T03:16:25.539Z,1005.59
2018-08-30T03:16:45.459Z,1005.47
2018-08-30T03:17:06.180Z,1005.52
2018-08-30T03:17:26.026Z,1005.54
2018-08-30T03:17:46.461Z,1005.48
2018-08-30T03:18:07.138Z,1005.44
2018-08-30T03:18:27.126Z,1005.53
2018-08-30T03:18:47.497Z,1005.47
2018-08-30T03:19:08.151Z,1005.48
2018-08-30T03:19:28.000Z,1005.54
2018-08-30T03:19:48.646Z,1005.49
2018-08-30T03:20:08.778Z,1005.54
2018-08-30T03:20:28.630Z,1005.50
2018-08-30T03:20:49.370Z,1005.49
2018-08-30T03:21:09.225Z,1005.46
2018-08-30T03:21:29.595Z,1005.48
2018-08-30T03:21:50.315Z,1005.40
2018-08-30T03:22:10.176Z,1005.47
2018-08-30T03:22:30.537Z,1005.42
2018-08-30T03:22:51.188Z,1005.42
2018-08-30T03:23:11.055Z,1005.51
2018-08-30T03:23:31.410Z,1005.56
2018-08-30T03:23:52.045Z,1005.47
2018-08-30T03:24:11.909Z,1005.51
2018-08-30T03:24:32.264Z,1005.49
2018-08-30T03:24:52.909Z,1005.57
2018-08-30T03:25:13.009Z,1005.57
2018-08-30T03:25:32.881Z,1005.51
2018-08-30T03:25:53.520Z,1005.55
2018-08-30T03:26:13.369Z,1005.53
2018-08-30T03:26:34.062Z,1005.63
2018-08-30T03:26:54.368Z,1005.56
2018-08-30T03:27:14.222Z,1005.60
2018-08-30T03:27:34.935Z,1005.60
2018-08-30T03:27:54.782Z,1005.55
2018-08-30T03:28:15.178Z,1005.51
2018-08-30T03:28:35.908Z,1005.55
2018-08-30T03:28:55.773Z,1005.63
2018-08-30T03:29:16.133Z,1005.60
2018-08-30T03:29:36.765Z,1005.53
2018-08-30T03:29:56.615Z,1005.57
2018-08-30T03:30:17.316Z,1005.48
2018-08-30T03:30:37.460Z,1005.55
2018-08-30T03:30:57.306Z,1005.55
2018-08-30T03:31:17.639Z,1005.62
2018-08-30T03:31:38.280Z,1005.54
2018-08-30T03:31:58.136Z,1005.60
2018-08-30T03:32:18.811Z,1005.64
2018-08-30T03:32:38.930Z,1005.53
2018-08-30T03:32:58.799Z,1005.52
2018-08-30T03:33:19.549Z,1005.61
2018-08-30T03:33:39.516Z,1005.58
2018-08-30T03:33:59.881Z,1005.54
2018-08-30T03:34:20.673Z,1005.65
2018-08-30T03:34:40.521Z,1005.62
2018-08-30T03:35:00.969Z,1005.58
2018-08-30T03:35:21.646Z,1005.62
2018-08-30T03:35:41.533Z,1005.58
2018-08-30T03:36:02.036Z,1005.62
2018-08-30T03:36:22.675Z,1005.64
2018-08-30T03:36:42.528Z,1005.70
2018-08-30T03:37:03.131Z,1005.69
2018-08-30T03:37:23.281Z,1005.68
2018-08-30T03:37:43.140Z,1005.70
2018-08-30T03:38:03.881Z,1005.67
2018-08-30T03:38:24.164Z,1005.72
2018-08-30T03:38:44.012Z,1005.73
2018-08-30T03:39:04.767Z,1005.72
2018-08-30T03:39:24.703Z,1005.61
2018-08-30T03:39:45.039Z,1005.68
2018-08-30T03:40:05.752Z,1005.73
2018-08-30T03:40:25.608Z,1005.72
2018-08-30T03:40:45.970Z,1005.71
2018-08-30T03:41:06.607Z,1005.76
2018-08-30T03:41:26.457Z,1005.73
2018-08-30T03:41:46.802Z,1005.71
2018-08-30T03:42:07.465Z,1005.73
2018-08-30T03:42:27.314Z,1005.82
2018-08-30T03:42:47.664Z,1005.85
2018-08-30T03:43:08.197Z,1005.76
2018-08-30T03:43:28.045Z,1005.70
2018-08-30T03:43:48.702Z,1005.82
2018-08-30T03:44:08.567Z,1005.76
2018-08-30T03:44:28.968Z,1005.79
2018-08-30T03:44:49.661Z,1005.73
2018-08-30T03:45:09.771Z,1005.80
2018-08-30T03:45:29.630Z,1005.79
2018-08-30T03:45:50.343Z,1005.78
2018-08-30T03:46:10.202Z,1005.77
2018-08-30T03:46:30.607Z,1005.83
2018-08-30T03:46:51.293Z,1005.77
2018-08-30T03:47:11.123Z,1005.64
2018-08-30T03:47:31.514Z,1005.74
2018-08-30T03:47:52.362Z,1005.84
2018-08-30T03:48:12.219Z,1005.69
2018-08-30T03:48:32.585Z,1005.79
2018-08-30T03:48:53.230Z,1005.75
2018-08-30T03:49:13.116Z,1005.79
2018-08-30T03:49:33.810Z,1005.66
2018-08-30T03:49:53.984Z,1005.73
2018-08-30T03:50:14.018Z,1005.76
2018-08-30T03:50:34.275Z,1005.87
2018-08-30T03:50:54.442Z,1005.80
2018-08-30T03:51:14.305Z,1005.78
2018-08-30T03:51:35.038Z,1005.79
2018-08-30T03:51:54.895Z,1005.72
2018-08-30T03:52:15.253Z,1005.84
2018-08-30T03:52:35.975Z,1005.78
2018-08-30T03:52:55.827Z,1005.82
2018-08-30T03:53:16.195Z,1005.71
2018-08-30T03:53:36.929Z,1005.86
2018-08-30T03:53:56.792Z,1005.78
2018-08-30T03:54:17.246Z,1005.84
2018-08-30T03:54:37.886Z,1005.89
2018-08-30T03:54:57.753Z,1005.85
2018-08-30T03:55:18.366Z,1005.82
2018-08-30T03:55:38.868Z,1005.74
2018-08-30T03:55:58.797Z,1005.77
2018-08-30T03:56:19.527Z,1005.76
2018-08-30T03:56:39.488Z,1005.78
2018-08-30T03:56:59.924Z,1005.77
2018-08-30T03:57:20.682Z,1005.81
2018-08-30T03:57:40.505Z,1005.77
2018-08-30T03:58:00.866Z,1005.80
2018-08-30T03:58:21.328Z,1005.81
2018-08-30T03:58:41.680Z,1005.71
2018-08-30T03:59:02.369Z,1005.78
2018-08-30T03:59:22.544Z,1005.79
2018-08-30T03:59:42.401Z,1005.78
2018-08-30T04:00:03.044Z,1005.81
2018-08-30T04:00:23.184Z,1005.79
2018-08-30T04:00:43.047Z,1005.79
2018-08-30T04:01:03.734Z,1005.79
2018-08-30T04:01:23.892Z,1005.74
2018-08-30T04:01:43.744Z,1005.78
2018-08-30T04:02:04.484Z,1005.82
2018-08-30T04:02:24.596Z,1005.81
2018-08-30T04:02:44.442Z,1005.80
2018-08-30T04:03:05.159Z,1005.88
2018-08-30T04:03:25.009Z,1005.82
2018-08-30T04:03:45.362Z,1005.84
2018-08-30T04:04:06.107Z,1005.82
2018-08-30T04:04:26.040Z,1005.83
2018-08-30T04:04:46.318Z,1005.86
2018-08-30T04:05:06.991Z,1005.90
2018-08-30T04:05:26.850Z,1005.88
2018-08-30T04:05:47.201Z,1005.83
2018-08-30T04:06:07.802Z,1005.82
2018-08-30T04:06:27.657Z,1005.88